createdAt,value
2019-03-16T00:01:23.881Z,2.83
2019-03-16T00:03:51.739Z,3.27
2019-03-16T00:06:18.697Z,2.97
2019-03-16T00:08:45.929Z,3.30
2019-03-16T00:11:14.805Z,3.93
2019-03-16T00:13:41.512Z,2.90
2019-03-16T00:16:09.251Z,3.17
2019-03-16T00:18:36.309Z,3.70
2019-03-16T00:21:03.434Z,3.10
2019-03-16T00:23:32.622Z,3.27
2019-03-16T00:25:59.681Z,2.90
2019-03-16T00:28:27.213Z,3.27
2019-03-16T00:30:56.468Z,3.60
2019-03-16T00:33:23.441Z,3.53
2019-03-16T00:35:50.587Z,3.47
2019-03-16T00:38:18.323Z,3.00
2019-03-16T00:40:45.859Z,3.47
2019-03-16T00:43:12.569Z,3.00
2019-03-16T00:45:39.301Z,3.17
2019-03-16T00:48:06.323Z,4.20
2019-03-16T00:50:33.467Z,3.70
2019-03-16T00:53:00.610Z,2.77
2019-03-16T00:55:27.630Z,3.63
2019-03-16T00:57:54.345Z,3.93
2019-03-16T01:00:22.550Z,4.77
2019-03-16T01:02:49.595Z,4.53
2019-03-16T01:05:16.702Z,4.20
2019-03-16T01:07:43.588Z,4.33
2019-03-16T01:10:10.827Z,4.10
2019-03-16T01:12:38.805Z,3.60
2019-03-16T01:15:10.517Z,3.87
2019-03-16T01:17:37.609Z,3.20
2019-03-16T01:20:07.623Z,3.47
2019-03-16T01:22:35.593Z,3.00
2019-03-16T01:25:04.817Z,3.93
2019-03-16T01:27:33.404Z,3.83
2019-03-16T01:30:00.792Z,2.73
2019-03-16T01:32:39.891Z,2.60
2019-03-16T01:34:59.511Z,2.40
2019-03-16T01:37:27.091Z,2.93
2019-03-16T01:39:55.621Z,3.13
2019-03-16T01:42:29.995Z,2.63
2019-03-16T01:44:57.103Z,2.73
2019-03-16T01:47:25.688Z,2.17
2019-03-16T01:49:55.641Z,1.93
2019-03-16T01:52:22.724Z,1.53
2019-03-16T01:54:57.697Z,1.40
2019-03-16T01:57:28.493Z,1.70
2019-03-16T01:59:56.914Z,1.30
2019-03-16T02:02:25.567Z,1.63
2019-03-16T02:04:52.745Z,1.67
2019-03-16T02:07:19.918Z,1.63
2019-03-16T02:09:46.874Z,1.70
2019-03-16T02:12:13.706Z,1.40
2019-03-16T02:14:40.952Z,2.07
2019-03-16T02:17:08.010Z,2.20
2019-03-16T02:19:36.101Z,1.73
2019-03-16T02:22:03.226Z,2.27
2019-03-16T02:24:31.905Z,2.00
2019-03-16T02:26:58.852Z,2.13
2019-03-16T02:29:26.015Z,2.73
2019-03-16T02:31:53.100Z,2.70
2019-03-16T02:34:19.996Z,3.17
2019-03-16T02:36:53.543Z,2.83
2019-03-16T02:39:20.437Z,2.90
2019-03-16T02:41:47.707Z,2.80
2019-03-16T02:44:15.658Z,3.27
2019-03-16T02:46:42.508Z,3.20
2019-03-16T02:49:09.650Z,2.60
2019-03-16T02:51:36.563Z,3.17
2019-03-16T02:54:03.342Z,1.97
2019-03-16T02:56:30.283Z,2.13
2019-03-16T02:58:57.204Z,1.93
2019-03-16T03:01:25.506Z,2.13
2019-03-16T03:03:52.744Z,1.90
2019-03-16T03:06:19.531Z,1.83
2019-03-16T03:08:46.604Z,1.57
2019-03-16T03:11:15.234Z,1.97
2019-03-16T03:13:42.174Z,1.90
2019-03-16T03:16:09.035Z,1.43
2019-03-16T03:18:35.958Z,1.83
2019-03-16T03:21:03.139Z,1.60
2019-03-16T03:23:29.994Z,1.30
2019-03-16T03:25:58.538Z,1.30
2019-03-16T03:28:25.745Z,1.43
2019-03-16T03:30:53.845Z,1.47
2019-03-16T03:33:20.975Z,1.47
2019-03-16T03:35:47.712Z,1.43
2019-03-16T03:38:14.513Z,1.57
2019-03-16T03:40:41.439Z,1.20
2019-03-16T03:43:08.579Z,1.33
2019-03-16T03:45:35.857Z,1.33
2019-03-16T03:48:02.796Z,1.20
2019-03-16T03:50:29.620Z,1.30
2019-03-16T03:52:58.305Z,1.47
2019-03-16T03:55:25.317Z,1.63
2019-03-16T03:57:52.228Z,0.73
2019-03-16T04:00:19.167Z,1.17
2019-03-16T04:02:46.082Z,1.07
2019-03-16T04:05:13.050Z,1.00
2019-03-16T04:07:40.184Z,1.17
2019-03-16T04:10:08.703Z,1.80
2019-03-16T04:12:35.587Z,1.00
2019-03-16T04:15:05.472Z,1.07
2019-03-16T04:17:32.470Z,0.90
2019-03-16T04:19:59.423Z,1.93
2019-03-16T04:22:26.991Z,1.07
2019-03-16T04:24:53.788Z,1.53
2019-03-16T04:27:20.898Z,1.20
2019-03-16T04:29:47.834Z,1.17
2019-03-16T04:32:15.868Z,0.87
2019-03-16T04:34:45.060Z,0.80
2019-03-16T04:37:13.363Z,0.70
2019-03-16T04:39:40.200Z,1.23
2019-03-16T04:42:07.050Z,1.53
2019-03-16T04:44:33.890Z,1.10
2019-03-16T04:47:02.006Z,1.23
2019-03-16T04:49:29.272Z,1.03
2019-03-16T04:51:56.500Z,0.97
2019-03-16T04:54:23.194Z,1.10
2019-03-16T04:56:50.128Z,1.97
2019-03-16T04:59:17.033Z,1.43
2019-03-16T05:01:43.864Z,1.37
2019-03-16T05:04:10.992Z,1.77
2019-03-16T05:06:37.681Z,1.43
2019-03-16T05:09:05.795Z,1.50
2019-03-16T05:11:33.058Z,1.83
2019-03-16T05:14:00.255Z,1.77
2019-03-16T05:16:27.155Z,1.93
2019-03-16T05:18:53.862Z,1.90
2019-03-16T05:21:22.828Z,1.83
2019-03-16T05:23:50.350Z,1.20
2019-03-16T05:26:18.022Z,1.93
2019-03-16T05:28:45.924Z,1.63
2019-03-16T05:31:12.726Z,2.10
2019-03-16T05:33:40.342Z,2.37
2019-03-16T05:36:07.254Z,2.07
2019-03-16T05:38:34.072Z,2.63
2019-03-16T05:41:01.221Z,1.60
2019-03-16T05:43:28.317Z,0.90
2019-03-16T05:45:55.034Z,1.40
2019-03-16T05:48:22.876Z,1.77
2019-03-16T05:50:49.750Z,1.33
2019-03-16T05:53:16.869Z,1.10
2019-03-16T05:55:43.748Z,1.30
2019-03-16T05:58:10.460Z,1.23
2019-03-16T06:00:37.602Z,1.47
2019-03-16T06:03:04.439Z,1.87
2019-03-16T06:05:31.486Z,2.20
2019-03-16T06:07:59.976Z,1.73
2019-03-16T06:10:26.884Z,2.30
2019-03-16T06:12:55.396Z,3.00
2019-03-16T06:15:22.330Z,2.97
2019-03-16T06:17:50.624Z,2.53
2019-03-16T06:20:17.640Z,1.93
2019-03-16T06:22:45.586Z,3.30
2019-03-16T06:25:14.150Z,3.53
2019-03-16T06:27:41.239Z,3.07
2019-03-16T06:30:12.846Z,2.20
2019-03-16T06:32:39.757Z,2.57
2019-03-16T06:35:07.302Z,2.27
2019-03-16T06:37:35.322Z,2.57
2019-03-16T06:40:02.997Z,2.40
2019-03-16T06:42:29.924Z,2.47
2019-03-16T06:44:57.074Z,2.37
2019-03-16T06:47:25.492Z,2.20
2019-03-16T06:49:53.122Z,2.37
2019-03-16T06:52:20.201Z,2.60
2019-03-16T06:54:46.886Z,2.50
2019-03-16T06:57:15.328Z,2.53
2019-03-16T06:59:42.500Z,1.90
2019-03-16T07:02:09.286Z,1.93
2019-03-16T07:04:36.378Z,2.63
2019-03-16T07:07:03.776Z,2.53
2019-03-16T07:09:30.464Z,2.20
2019-03-16T07:11:57.479Z,1.97
2019-03-16T07:14:24.401Z,3.27
2019-03-16T07:17:01.556Z,1.60
2019-03-16T07:19:21.751Z,1.10
2019-03-16T07:21:49.422Z,1.37
2019-03-16T07:24:16.542Z,1.90
2019-03-16T07:26:43.362Z,1.20
2019-03-16T07:29:10.404Z,1.43
2019-03-16T07:31:37.217Z,2.37
2019-03-16T07:34:05.612Z,1.73
2019-03-16T07:36:32.404Z,2.07
2019-03-16T07:39:00.953Z,1.40
2019-03-16T07:41:28.127Z,1.40
2019-03-16T07:43:54.950Z,1.50
2019-03-16T07:46:21.962Z,2.30
2019-03-16T07:48:49.094Z,2.10
2019-03-16T07:51:15.983Z,1.70
2019-03-16T07:53:42.908Z,2.30
2019-03-16T07:56:09.910Z,4.33
2019-03-16T07:58:36.845Z,2.43
2019-03-16T08:01:03.743Z,3.57
2019-03-16T08:03:30.782Z,3.03
2019-03-16T08:05:57.694Z,3.20
2019-03-16T08:08:24.612Z,4.23
2019-03-16T08:10:51.747Z,3.63
2019-03-16T08:13:18.463Z,2.70
2019-03-16T08:15:45.217Z,3.47
2019-03-16T08:18:12.560Z,3.03
2019-03-16T08:20:39.357Z,3.20
2019-03-16T08:23:06.402Z,3.30
2019-03-16T08:25:33.396Z,5.20
2019-03-16T08:28:00.252Z,2.33
2019-03-16T08:30:27.177Z,2.50
2019-03-16T08:32:54.354Z,2.07
2019-03-16T08:35:21.274Z,1.80
2019-03-16T08:37:48.491Z,1.97
2019-03-16T08:40:15.316Z,1.10
2019-03-16T08:42:42.374Z,1.10
2019-03-16T08:45:12.455Z,1.00
2019-03-16T08:47:41.420Z,1.10
2019-03-16T08:50:09.885Z,0.93
2019-03-16T08:52:39.902Z,1.63
2019-03-16T08:55:08.511Z,1.23
2019-03-16T08:57:36.547Z,1.77
2019-03-16T09:00:06.616Z,1.30
2019-03-16T09:02:34.810Z,1.97
2019-03-16T09:05:02.855Z,1.57
2019-03-16T09:07:29.766Z,1.43
2019-03-16T09:09:58.641Z,1.10
2019-03-16T09:12:25.563Z,1.43
2019-03-16T09:15:08.735Z,2.10
2019-03-16T09:17:35.575Z,1.70
2019-03-16T09:20:04.501Z,1.40
2019-03-16T09:22:31.721Z,1.43
2019-03-16T09:24:58.751Z,1.67
2019-03-16T09:27:31.022Z,2.07
2019-03-16T09:29:56.149Z,2.20
2019-03-16T09:32:23.164Z,1.70
2019-03-16T09:34:49.848Z,2.00
2019-03-16T09:37:18.402Z,2.00
2019-03-16T09:39:46.661Z,2.00
2019-03-16T09:42:13.519Z,2.83
2019-03-16T09:44:41.411Z,1.70
2019-03-16T09:47:08.316Z,1.47
2019-03-16T09:49:35.704Z,2.23
2019-03-16T09:52:02.762Z,2.13
2019-03-16T09:54:29.928Z,2.40
2019-03-16T09:57:01.629Z,3.10
2019-03-16T09:59:27.210Z,3.67
2019-03-16T10:01:55.665Z,2.53
2019-03-16T10:04:23.589Z,1.53
2019-03-16T10:06:50.315Z,1.40
2019-03-16T10:09:17.357Z,1.60
2019-03-16T10:11:44.398Z,1.67
2019-03-16T10:14:11.363Z,1.53
2019-03-16T10:16:38.390Z,2.70
2019-03-16T10:19:06.097Z,2.13
2019-03-16T10:21:33.337Z,2.00
2019-03-16T10:24:00.151Z,1.87
2019-03-16T10:26:28.311Z,1.90
2019-03-16T10:28:55.133Z,1.83
2019-03-16T10:31:25.275Z,2.73
2019-03-16T10:33:53.629Z,2.40
2019-03-16T10:36:20.577Z,2.70
2019-03-16T10:38:47.608Z,2.00
2019-03-16T10:41:14.322Z,2.67
2019-03-16T10:43:41.197Z,2.27
2019-03-16T10:46:08.561Z,1.37
2019-03-16T10:48:35.850Z,1.90
2019-03-16T10:51:03.600Z,1.70
2019-03-16T10:53:30.433Z,3.40
2019-03-16T10:55:57.365Z,1.83
2019-03-16T10:58:26.071Z,2.97
2019-03-16T11:00:54.646Z,2.10
2019-03-16T11:03:22.561Z,1.93
2019-03-16T11:05:49.351Z,1.90
2019-03-16T11:08:17.506Z,2.30
2019-03-16T11:10:44.249Z,1.93
2019-03-16T11:13:13.077Z,1.37
2019-03-16T11:15:40.070Z,4.23
2019-03-16T11:18:06.977Z,2.47
2019-03-16T11:20:35.584Z,1.30
2019-03-16T11:23:02.693Z,1.73
2019-03-16T11:25:29.619Z,2.27
2019-03-16T11:27:56.645Z,1.50
2019-03-16T11:30:24.241Z,1.40
2019-03-16T11:32:51.155Z,0.70
2019-03-16T11:35:18.049Z,1.03
2019-03-16T11:37:46.603Z,1.60
2019-03-16T11:40:19.067Z,2.13
2019-03-16T11:42:45.978Z,1.67
2019-03-16T11:45:13.323Z,1.83
2019-03-16T11:47:41.880Z,1.13
2019-03-16T11:50:09.903Z,1.97
2019-03-16T11:52:37.799Z,1.50
2019-03-16T11:55:09.288Z,2.07
2019-03-16T11:57:38.085Z,2.10
2019-03-16T12:00:10.142Z,1.60
2019-03-16T12:02:37.450Z,1.63
2019-03-16T12:05:26.181Z,1.90
2019-03-16T12:07:53.625Z,3.30
2019-03-16T12:10:20.515Z,1.60
2019-03-16T12:12:47.523Z,1.73
2019-03-16T12:15:14.457Z,2.37
2019-03-16T12:17:41.545Z,1.97
2019-03-16T12:20:17.812Z,2.47
2019-03-16T12:22:45.708Z,2.30
2019-03-16T12:25:12.644Z,2.27
2019-03-16T12:27:39.691Z,2.00
2019-03-16T12:30:09.249Z,1.30
2019-03-16T12:32:37.596Z,1.87
2019-03-16T12:35:06.706Z,2.10
2019-03-16T12:37:34.873Z,1.93
2019-03-16T12:40:07.285Z,1.97
2019-03-16T12:42:34.476Z,1.67
2019-03-16T12:45:02.048Z,1.10
2019-03-16T12:47:31.147Z,6.07
2019-03-16T12:49:57.868Z,4.93
2019-03-16T12:52:26.039Z,1.77
2019-03-16T12:54:53.195Z,1.80
2019-03-16T12:57:21.717Z,1.40
2019-03-16T12:59:48.564Z,2.73
2019-03-16T13:02:16.198Z,2.37
2019-03-16T13:04:49.560Z,2.20
2019-03-16T13:07:16.400Z,1.30
2019-03-16T13:09:43.424Z,1.80
2019-03-16T13:12:10.575Z,1.73
2019-03-16T13:14:37.620Z,2.10
2019-03-16T13:17:05.976Z,2.87
2019-03-16T13:19:33.712Z,2.37
2019-03-16T13:22:01.860Z,3.87
2019-03-16T13:24:28.670Z,1.93
2019-03-16T13:26:55.722Z,1.50
2019-03-16T13:29:22.626Z,2.00
2019-03-16T13:31:49.456Z,2.83
2019-03-16T13:34:17.514Z,1.77
2019-03-16T13:36:44.570Z,2.43
2019-03-16T13:39:11.526Z,2.70
2019-03-16T13:41:38.398Z,1.53
2019-03-16T13:44:05.369Z,3.23
2019-03-16T13:46:32.172Z,2.60
2019-03-16T13:48:59.137Z,2.13
2019-03-16T13:51:26.234Z,1.90
2019-03-16T13:53:53.082Z,2.83
2019-03-16T13:56:20.017Z,2.90
2019-03-16T13:58:48.551Z,11.30
2019-03-16T14:01:15.598Z,2.07
2019-03-16T14:03:45.614Z,1.80
2019-03-16T14:06:12.846Z,2.23
2019-03-16T14:08:40.331Z,2.13
2019-03-16T14:11:07.027Z,2.90
2019-03-16T14:13:34.024Z,2.33
2019-03-16T14:16:01.052Z,2.47
2019-03-16T14:18:28.321Z,3.17
2019-03-16T14:20:55.782Z,2.50
2019-03-16T14:23:23.647Z,1.93
2019-03-16T14:25:50.468Z,2.63
2019-03-16T14:28:17.948Z,2.50
2019-03-16T14:30:45.290Z,2.23
2019-03-16T14:33:12.519Z,1.83
2019-03-16T14:35:39.268Z,2.60
2019-03-16T14:38:06.342Z,1.90
2019-03-16T14:40:33.949Z,2.90
2019-03-16T14:43:01.154Z,3.33
2019-03-16T14:45:28.639Z,2.10
2019-03-16T14:47:55.703Z,3.10
2019-03-16T14:50:24.332Z,1.73
2019-03-16T14:52:51.057Z,3.63
2019-03-16T14:55:18.081Z,2.37
2019-03-16T14:57:45.710Z,2.00
2019-03-16T15:00:15.600Z,2.23
2019-03-16T15:02:45.919Z,3.77
2019-03-16T15:05:13.472Z,2.23
2019-03-16T15:07:40.688Z,2.63
2019-03-16T15:10:10.646Z,12.77
2019-03-16T15:12:38.040Z,2.50
2019-03-16T15:15:09.718Z,2.23
2019-03-16T15:17:37.668Z,2.47
2019-03-16T15:20:07.823Z,1.87
2019-03-16T15:22:36.564Z,2.80
2019-03-16T15:25:11.108Z,1.93
2019-03-16T15:27:38.151Z,2.70
2019-03-16T15:30:17.500Z,2.27
2019-03-16T15:32:45.469Z,1.90
2019-03-16T15:35:14.152Z,2.80
2019-03-16T15:37:41.374Z,2.30
2019-03-16T15:40:12.510Z,1.77
2019-03-16T15:42:39.781Z,2.80
2019-03-16T15:45:16.510Z,2.30
2019-03-16T15:47:43.596Z,2.70
2019-03-16T15:50:10.850Z,2.83
2019-03-16T15:52:38.425Z,3.03
2019-03-16T15:55:06.209Z,2.77
2019-03-16T15:57:36.288Z,2.37
2019-03-16T16:00:13.888Z,3.40
2019-03-16T16:02:40.862Z,2.40
2019-03-16T16:05:08.706Z,2.87
2019-03-16T16:07:35.663Z,2.53
2019-03-16T16:10:05.895Z,3.30
2019-03-16T16:12:32.984Z,4.50
2019-03-16T16:14:59.927Z,9.50
2019-03-16T16:17:28.428Z,7.67
2019-03-16T16:19:55.541Z,2.77
2019-03-16T16:22:22.483Z,2.97
2019-03-16T16:24:50.029Z,2.30
2019-03-16T16:27:17.167Z,3.27
2019-03-16T16:29:47.005Z,2.60
2019-03-16T16:32:14.810Z,6.07
2019-03-16T16:34:42.017Z,3.37
2019-03-16T16:37:09.084Z,2.93
2019-03-16T16:39:36.041Z,2.90
2019-03-16T16:42:03.112Z,2.80
2019-03-16T16:44:31.168Z,2.77
2019-03-16T16:46:57.842Z,4.00
2019-03-16T16:49:24.727Z,3.30
2019-03-16T16:51:51.972Z,2.93
2019-03-16T16:54:18.873Z,2.53
2019-03-16T16:56:47.300Z,3.27
2019-03-16T16:59:14.135Z,3.37
2019-03-16T17:01:41.287Z,3.57
2019-03-16T17:04:08.236Z,3.33
2019-03-16T17:06:35.070Z,3.03
2019-03-16T17:09:05.125Z,3.10
2019-03-16T17:11:31.876Z,3.97
2019-03-16T17:13:58.722Z,3.77
2019-03-16T17:16:25.655Z,2.63
2019-03-16T17:18:52.465Z,3.30
2019-03-16T17:21:19.535Z,3.50
2019-03-16T17:23:46.230Z,3.20
2019-03-16T17:26:13.414Z,4.03
2019-03-16T17:28:40.583Z,4.37
2019-03-16T17:31:09.966Z,3.93
2019-03-16T17:33:37.163Z,3.67
2019-03-16T17:36:04.060Z,4.07
2019-03-16T17:38:32.351Z,3.43
2019-03-16T17:41:00.213Z,4.00
2019-03-16T17:43:27.228Z,4.17
2019-03-16T17:45:55.846Z,5.27
2019-03-16T17:48:22.656Z,4.67
2019-03-16T17:50:49.605Z,4.03
2019-03-16T17:53:16.750Z,4.40
2019-03-16T17:55:45.611Z,5.03
2019-03-16T17:58:12.765Z,5.20
2019-03-16T18:00:42.881Z,5.17
2019-03-16T18:03:09.887Z,6.47
2019-03-16T18:05:36.639Z,5.70
2019-03-16T18:08:05.220Z,5.23
2019-03-16T18:10:32.028Z,4.67
2019-03-16T18:13:00.621Z,4.83
2019-03-16T18:15:27.545Z,4.23
2019-03-16T18:17:55.566Z,5.83
2019-03-16T18:20:22.849Z,4.93
2019-03-16T18:22:49.709Z,4.70
2019-03-16T18:25:16.788Z,4.37
2019-03-16T18:27:45.488Z,4.23
2019-03-16T18:30:19.746Z,4.50
2019-03-16T18:32:46.967Z,5.67
2019-03-16T18:35:15.849Z,5.13
2019-03-16T18:37:43.001Z,6.33
2019-03-16T18:40:14.824Z,4.87
2019-03-16T18:42:41.675Z,4.63
2019-03-16T18:45:14.552Z,6.17
2019-03-16T18:47:41.579Z,6.17
2019-03-16T18:50:08.997Z,7.93
2019-03-16T18:52:35.947Z,7.43
2019-03-16T18:55:06.429Z,7.20
2019-03-16T18:57:35.314Z,6.47
2019-03-16T19:00:05.507Z,7.13
2019-03-16T19:02:32.651Z,6.83
2019-03-16T19:04:59.559Z,6.80
2019-03-16T19:07:26.814Z,7.40
2019-03-16T19:09:53.827Z,8.23
2019-03-16T19:12:20.755Z,5.83
2019-03-16T19:14:47.603Z,5.53
2019-03-16T19:17:15.611Z,5.67
2019-03-16T19:19:42.624Z,5.60
2019-03-16T19:22:11.653Z,5.20
2019-03-16T19:24:38.784Z,6.40
2019-03-16T19:27:05.533Z,6.27
2019-03-16T19:29:32.557Z,6.33
2019-03-16T19:31:59.501Z,6.03
2019-03-16T19:34:26.317Z,5.67
2019-03-16T19:36:53.466Z,5.93
2019-03-16T19:39:20.195Z,6.23
2019-03-16T19:41:46.953Z,6.97
2019-03-16T19:44:15.676Z,6.53
2019-03-16T19:46:42.730Z,6.93
2019-03-16T19:49:10.737Z,6.83
2019-03-16T19:51:37.562Z,6.97
2019-03-16T19:54:04.417Z,7.27
2019-03-16T19:56:33.502Z,6.80
2019-03-16T19:59:03.122Z,7.40
2019-03-16T20:01:30.371Z,7.80
2019-03-16T20:03:57.226Z,7.13
2019-03-16T20:06:26.275Z,7.47
2019-03-16T20:08:53.371Z,7.17
2019-03-16T20:11:21.221Z,7.90
2019-03-16T20:13:48.432Z,8.03
2019-03-16T20:16:15.453Z,6.57
2019-03-16T20:18:42.629Z,7.27
2019-03-16T20:21:09.560Z,7.50
2019-03-16T20:23:36.377Z,7.60
2019-03-16T20:26:03.533Z,6.43
2019-03-16T20:28:30.285Z,7.07
2019-03-16T20:30:58.839Z,7.10
2019-03-16T20:33:25.688Z,6.27
2019-03-16T20:35:52.575Z,6.97
2019-03-16T20:38:19.476Z,7.23
2019-03-16T20:40:49.806Z,7.33
2019-03-16T20:43:16.974Z,8.13
2019-03-16T20:45:43.711Z,8.37
2019-03-16T20:48:10.692Z,6.50
2019-03-16T20:50:37.775Z,7.67
2019-03-16T20:53:04.902Z,7.37
2019-03-16T20:55:34.262Z,7.33
2019-03-16T20:58:02.597Z,7.73
2019-03-16T21:00:30.658Z,7.37
2019-03-16T21:02:58.062Z,8.00
2019-03-16T21:05:24.983Z,8.53
2019-03-16T21:07:52.138Z,8.60
2019-03-16T21:10:19.165Z,7.70
2019-03-16T21:12:46.661Z,6.90
2019-03-16T21:15:15.271Z,6.73
2019-03-16T21:17:42.236Z,6.80
2019-03-16T21:20:11.544Z,5.67
2019-03-16T21:22:39.139Z,5.33
2019-03-16T21:25:09.011Z,6.13
2019-03-16T21:27:35.957Z,5.40
2019-03-16T21:30:07.044Z,5.13
2019-03-16T21:32:34.894Z,5.87
2019-03-16T21:35:03.242Z,5.13
2019-03-16T21:37:30.295Z,5.23
2019-03-16T21:39:57.266Z,5.83
2019-03-16T21:42:25.879Z,5.37
2019-03-16T21:44:52.963Z,4.80
2019-03-16T21:47:19.839Z,4.47
2019-03-16T21:49:46.863Z,5.53
2019-03-16T21:52:15.047Z,5.30
2019-03-16T21:54:42.240Z,5.30
2019-03-16T21:57:09.255Z,5.60
2019-03-16T21:59:37.609Z,4.57
2019-03-16T22:02:05.987Z,5.17
2019-03-16T22:04:32.983Z,4.87
2019-03-16T22:06:59.919Z,4.27
2019-03-16T22:09:26.872Z,4.33
2019-03-16T22:11:55.525Z,4.43
2019-03-16T22:14:22.609Z,4.30
2019-03-16T22:16:49.342Z,4.27
2019-03-16T22:19:16.311Z,4.20
2019-03-16T22:21:43.246Z,3.80
2019-03-16T22:24:10.180Z,4.27
2019-03-16T22:26:37.025Z,4.20
2019-03-16T22:29:04.018Z,3.40
2019-03-16T22:31:30.990Z,3.93
2019-03-16T22:33:59.483Z,3.27
2019-03-16T22:36:26.842Z,3.53
2019-03-16T22:38:53.685Z,3.53
2019-03-16T22:41:20.759Z,3.27
2019-03-16T22:43:47.686Z,2.77
2019-03-16T22:46:16.403Z,2.90
2019-03-16T22:48:44.924Z,2.73
2019-03-16T22:51:11.970Z,3.33
2019-03-16T22:53:40.560Z,3.07
2019-03-16T22:56:09.592Z,2.70
2019-03-16T22:58:36.328Z,3.50
2019-03-16T23:01:04.144Z,3.47
2019-03-16T23:03:31.465Z,2.60
2019-03-16T23:06:00.566Z,2.93
2019-03-16T23:08:27.533Z,3.53
2019-03-16T23:10:55.679Z,2.53
2019-03-16T23:13:22.567Z,2.50
2019-03-16T23:15:49.409Z,3.50
2019-03-16T23:18:16.700Z,3.10
2019-03-16T23:20:43.883Z,3.30
2019-03-16T23:23:11.134Z,4.27
2019-03-16T23:25:37.868Z,3.57
2019-03-16T23:28:05.187Z,3.23
2019-03-16T23:30:32.330Z,3.00
2019-03-16T23:33:00.847Z,3.37
2019-03-16T23:35:28.165Z,3.17
2019-03-16T23:37:56.719Z,4.67
2019-03-16T23:40:25.570Z,2.50
2019-03-16T23:42:54.816Z,3.33
2019-03-16T23:45:22.052Z,2.57
2019-03-16T23:47:49.484Z,3.73
2019-03-16T23:50:16.456Z,3.37
2019-03-16T23:52:45.002Z,3.87
2019-03-16T23:55:11.993Z,3.77
2019-03-16T23:57:39.033Z,3.13
